sensor_id;sensor_type;location;lat;lon;timestamp;temperature;humidity
17370;DHT22;8802;52.402;4.920;2024-03-02T00:01:25;11.60;99.90
17370;DHT22;8802;52.402;4.920;2024-03-02T00:03:52;11.60;99.90
17370;DHT22;8802;52.402;4.920;2024-03-02T00:06:20;11.70;99.90
17370;DHT22;8802;52.402;4.920;2024-03-02T00:08:47;11.70;99.90
17370;DHT22;8802;52.402;4.920;2024-03-02T00:11:14;11.60;99.90
17370;DHT22;8802;52.402;4.920;2024-03-02T00:13:43;11.70;99.90
17370;DHT22;8802;52.402;4.920;2024-03-02T00:16:10;11.70;99.90
17370;DHT22;8802;52.402;4.920;2024-03-02T00:18:37;11.70;99.90
17370;DHT22;8802;52.402;4.920;2024-03-02T00:21:06;11.70;99.90
17370;DHT22;8802;52.402;4.920;2024-03-02T00:23:35;11.70;99.90
17370;DHT22;8802;52.402;4.920;2024-03-02T00:26:02;11.70;99.90
17370;DHT22;8802;52.402;4.920;2024-03-02T00:28:32;11.60;99.90
17370;DHT22;8802;52.402;4.920;2024-03-02T00:31:02;11.60;99.90
17370;DHT22;8802;52.402;4.920;2024-03-02T00:33:32;11.60;99.90
17370;DHT22;8802;52.402;4.920;2024-03-02T00:35:59;11.60;99.90
17370;DHT22;8802;52.402;4.920;2024-03-02T00:38:26;11.60;99.90
17370;DHT22;8802;52.402;4.920;2024-03-02T00:40:54;11.50;99.90
17370;DHT22;8802;52.402;4.920;2024-03-02T00:43:41;11.50;99.90
17370;DHT22;8802;52.402;4.920;2024-03-02T00:46:11;11.50;99.90
17370;DHT22;8802;52.402;4.920;2024-03-02T00:48:39;11.40;99.90
17370;DHT22;8802;52.402;4.920;2024-03-02T00:51:06;11.40;99.90
17370;DHT22;8802;52.402;4.920;2024-03-02T00:53:33;11.30;99.90
17370;DHT22;8802;52.402;4.920;2024-03-02T00:56:01;11.30;99.90
17370;DHT22;8802;52.402;4.920;2024-03-02T00:58:27;11.30;99.90
17370;DHT22;8802;52.402;4.920;2024-03-02T01:00:54;11.30;99.90
17370;DHT22;8802;52.402;4.920;2024-03-02T01:03:22;11.20;99.90
17370;DHT22;8802;52.402;4.920;2024-03-02T01:05:49;11.20;99.90
17370;DHT22;8802;52.402;4.920;2024-03-02T01:08:16;11.20;99.90
17370;DHT22;8802;52.402;4.920;2024-03-02T01:10:43;11.10;99.90
17370;DHT22;8802;52.402;4.920;2024-03-02T01:13:10;11.10;99.90
17370;DHT22;8802;52.402;4.920;2024-03-02T01:15:37;11.00;99.90
17370;DHT22;8802;52.402;4.920;2024-03-02T01:18:04;11.00;99.90
17370;DHT22;8802;52.402;4.920;2024-03-02T01:20:33;11.00;99.90
17370;DHT22;8802;52.402;4.920;2024-03-02T01:22:58;11.00;99.90
17370;DHT22;8802;52.402;4.920;2024-03-02T01:25:25;10.90;99.90
17370;DHT22;8802;52.402;4.920;2024-03-02T01:27:52;10.90;99.90
17370;DHT22;8802;52.402;4.920;2024-03-02T01:30:19;10.90;99.90
17370;DHT22;8802;52.402;4.920;2024-03-02T01:32:47;10.90;99.90
17370;DHT22;8802;52.402;4.920;2024-03-02T01:35:14;10.90;99.90
17370;DHT22;8802;52.402;4.920;2024-03-02T01:37:42;10.80;99.90
17370;DHT22;8802;52.402;4.920;2024-03-02T01:40:10;10.80;99.90
17370;DHT22;8802;52.402;4.920;2024-03-02T01:42:38;10.80;99.90
17370;DHT22;8802;52.402;4.920;2024-03-02T01:45:06;10.80;99.90
17370;DHT22;8802;52.402;4.920;2024-03-02T01:47:33;10.80;99.90
17370;DHT22;8802;52.402;4.920;2024-03-02T01:50:00;10.70;99.90
17370;DHT22;8802;52.402;4.920;2024-03-02T01:52:27;10.70;99.90
17370;DHT22;8802;52.402;4.920;2024-03-02T01:54:56;10.70;99.90
17370;DHT22;8802;52.402;4.920;2024-03-02T01:57:23;10.70;99.90
17370;DHT22;8802;52.402;4.920;2024-03-02T01:59:50;10.70;99.90
17370;DHT22;8802;52.402;4.920;2024-03-02T02:02:17;10.70;99.90
17370;DHT22;8802;52.402;4.920;2024-03-02T02:04:44;10.60;99.90
17370;DHT22;8802;52.402;4.920;2024-03-02T02:07:11;10.60;99.90
17370;DHT22;8802;52.402;4.920;2024-03-02T02:09:39;10.60;99.90
17370;DHT22;8802;52.402;4.920;2024-03-02T02:12:08;10.60;99.90
17370;DHT22;8802;52.402;4.920;2024-03-02T02:14:35;10.60;99.90
17370;DHT22;8802;52.402;4.920;2024-03-02T02:17:02;10.60;99.90
17370;DHT22;8802;52.402;4.920;2024-03-02T02:19:29;10.60;99.90
17370;DHT22;8802;52.402;4.920;2024-03-02T02:21:57;10.50;99.90
17370;DHT22;8802;52.402;4.920;2024-03-02T02:24:24;10.50;99.90
17370;DHT22;8802;52.402;4.920;2024-03-02T02:26:51;10.50;99.90
17370;DHT22;8802;52.402;4.920;2024-03-02T02:29:18;10.50;99.90
17370;DHT22;8802;52.402;4.920;2024-03-02T02:31:45;10.50;99.90
17370;DHT22;8802;52.402;4.920;2024-03-02T02:34:14;10.50;99.90
17370;DHT22;8802;52.402;4.920;2024-03-02T02:36:41;10.50;99.90
17370;DHT22;8802;52.402;4.920;2024-03-02T02:39:12;10.50;99.90
17370;DHT22;8802;52.402;4.920;2024-03-02T02:41:39;10.50;99.90
17370;DHT22;8802;52.402;4.920;2024-03-02T02:44:06;10.50;99.90
17370;DHT22;8802;52.402;4.920;2024-03-02T02:46:33;10.50;99.90
17370;DHT22;8802;52.402;4.920;2024-03-02T02:49:00;10.40;99.90
17370;DHT22;8802;52.402;4.920;2024-03-02T02:51:27;10.40;99.90
17370;DHT22;8802;52.402;4.920;2024-03-02T02:53:54;10.40;99.90
17370;DHT22;8802;52.402;4.920;2024-03-02T02:56:22;10.40;99.90
17370;DHT22;8802;52.402;4.920;2024-03-02T02:58:49;10.40;99.90
17370;DHT22;8802;52.402;4.920;2024-03-02T03:01:16;10.40;99.90
17370;DHT22;8802;52.402;4.920;2024-03-02T03:03:43;10.30;99.90
17370;DHT22;8802;52.402;4.920;2024-03-02T03:06:11;10.40;99.90
17370;DHT22;8802;52.402;4.920;2024-03-02T03:08:38;10.40;99.90
17370;DHT22;8802;52.402;4.920;2024-03-02T03:11:05;10.40;99.90
17370;DHT22;8802;52.402;4.920;2024-03-02T03:13:34;10.40;99.90
17370;DHT22;8802;52.402;4.920;2024-03-02T03:16:01;10.40;99.90
17370;DHT22;8802;52.402;4.920;2024-03-02T03:18:28;10.40;99.90
17370;DHT22;8802;52.402;4.920;2024-03-02T03:20:55;10.40;99.90
17370;DHT22;8802;52.402;4.920;2024-03-02T03:23:22;10.40;99.90
17370;DHT22;8802;52.402;4.920;2024-03-02T03:25:49;10.40;99.90
17370;DHT22;8802;52.402;4.920;2024-03-02T03:28:15;10.40;99.90
17370;DHT22;8802;52.402;4.920;2024-03-02T03:30:44;10.40;99.90
17370;DHT22;8802;52.402;4.920;2024-03-02T03:33:10;10.40;99.90
17370;DHT22;8802;52.402;4.920;2024-03-02T03:35:37;10.40;99.90
17370;DHT22;8802;52.402;4.920;2024-03-02T03:38:04;10.40;99.90
17370;DHT22;8802;52.402;4.920;2024-03-02T03:40:31;10.40;99.90
17370;DHT22;8802;52.402;4.920;2024-03-02T03:42:58;10.40;99.90
17370;DHT22;8802;52.402;4.920;2024-03-02T03:45:25;10.40;99.90
17370;DHT22;8802;52.402;4.920;2024-03-02T03:47:54;10.40;99.90
17370;DHT22;8802;52.402;4.920;2024-03-02T03:50:21;10.30;99.90
17370;DHT22;8802;52.402;4.920;2024-03-02T03:52:49;10.30;99.90
17370;DHT22;8802;52.402;4.920;2024-03-02T03:55:16;10.30;99.90
17370;DHT22;8802;52.402;4.920;2024-03-02T03:57:43;10.30;99.90
17370;DHT22;8802;52.402;4.920;2024-03-02T04:00:12;10.30;99.90
17370;DHT22;8802;52.402;4.920;2024-03-02T04:02:39;10.30;99.90
17370;DHT22;8802;52.402;4.920;2024-03-02T04:05:07;10.30;99.90
17370;DHT22;8802;52.402;4.920;2024-03-02T04:07:36;10.30;99.90
17370;DHT22;8802;52.402;4.920;2024-03-02T04:10:07;10.30;99.90
17370;DHT22;8802;52.402;4.920;2024-03-02T04:12:35;10.30;99.90
17370;DHT22;8802;52.402;4.920;2024-03-02T04:15:03;10.30;99.90
17370;DHT22;8802;52.402;4.920;2024-03-02T04:17:31;10.30;99.90
17370;DHT22;8802;52.402;4.920;2024-03-02T04:19:58;10.30;99.90
17370;DHT22;8802;52.402;4.920;2024-03-02T04:22:27;10.30;99.90
17370;DHT22;8802;52.402;4.920;2024-03-02T04:24:54;10.30;99.90
17370;DHT22;8802;52.402;4.920;2024-03-02T04:27:21;10.30;99.90
17370;DHT22;8802;52.402;4.920;2024-03-02T04:29:48;10.30;99.90
17370;DHT22;8802;52.402;4.920;2024-03-02T04:32:15;10.30;99.90
17370;DHT22;8802;52.402;4.920;2024-03-02T04:34:42;10.30;99.90
17370;DHT22;8802;52.402;4.920;2024-03-02T04:37:10;10.30;99.90
17370;DHT22;8802;52.402;4.920;2024-03-02T04:39:39;10.30;99.90
17370;DHT22;8802;52.402;4.920;2024-03-02T04:42:05;10.40;99.90
17370;DHT22;8802;52.402;4.920;2024-03-02T04:44:32;10.30;99.90
17370;DHT22;8802;52.402;4.920;2024-03-02T04:46:58;10.30;99.90
17370;DHT22;8802;52.402;4.920;2024-03-02T04:49:25;10.30;99.90
17370;DHT22;8802;52.402;4.920;2024-03-02T04:51:52;10.30;99.90
17370;DHT22;8802;52.402;4.920;2024-03-02T04:54:19;10.30;99.90
17370;DHT22;8802;52.402;4.920;2024-03-02T04:56:47;10.30;99.90
17370;DHT22;8802;52.402;4.920;2024-03-02T04:59:16;10.30;99.90
17370;DHT22;8802;52.402;4.920;2024-03-02T05:01:43;10.30;99.90
17370;DHT22;8802;52.402;4.920;2024-03-02T05:04:10;10.30;99.90
17370;DHT22;8802;52.402;4.920;2024-03-02T05:06:38;10.30;99.90
17370;DHT22;8802;52.402;4.920;2024-03-02T05:09:05;10.20;99.90
17370;DHT22;8802;52.402;4.920;2024-03-02T05:11:32;10.30;99.90
17370;DHT22;8802;52.402;4.920;2024-03-02T05:14:14;10.20;99.90
17370;DHT22;8802;52.402;4.920;2024-03-02T05:16:41;10.20;99.90
17370;DHT22;8802;52.402;4.920;2024-03-02T05:19:08;10.20;99.90
17370;DHT22;8802;52.402;4.920;2024-03-02T05:21:35;10.20;99.90
17370;DHT22;8802;52.402;4.920;2024-03-02T05:24:02;10.20;99.90
17370;DHT22;8802;52.402;4.920;2024-03-02T05:26:29;10.20;99.90
17370;DHT22;8802;52.402;4.920;2024-03-02T05:28:56;10.20;99.90
17370;DHT22;8802;52.402;4.920;2024-03-02T05:31:23;10.20;99.90
17370;DHT22;8802;52.402;4.920;2024-03-02T05:33:49;10.20;99.90
17370;DHT22;8802;52.402;4.920;2024-03-02T05:36:18;10.20;99.90
17370;DHT22;8802;52.402;4.920;2024-03-02T05:38:46;10.10;99.90
17370;DHT22;8802;52.402;4.920;2024-03-02T05:41:13;10.10;99.90
17370;DHT22;8802;52.402;4.920;2024-03-02T05:43:39;10.10;99.90
17370;DHT22;8802;52.402;4.920;2024-03-02T05:46:06;10.10;99.90
17370;DHT22;8802;52.402;4.920;2024-03-02T05:48:34;10.10;99.90
17370;DHT22;8802;52.402;4.920;2024-03-02T05:51:01;10.10;99.90
17370;DHT22;8802;52.402;4.920;2024-03-02T05:53:28;10.10;99.90
17370;DHT22;8802;52.402;4.920;2024-03-02T05:55:55;10.10;99.90
17370;DHT22;8802;52.402;4.920;2024-03-02T05:58:22;10.10;99.90
17370;DHT22;8802;52.402;4.920;2024-03-02T06:00:59;10.10;99.90
17370;DHT22;8802;52.402;4.920;2024-03-02T06:03:26;10.10;99.90
17370;DHT22;8802;52.402;4.920;2024-03-02T06:05:55;10.00;99.90
17370;DHT22;8802;52.402;4.920;2024-03-02T06:08:21;10.00;99.90
17370;DHT22;8802;52.402;4.920;2024-03-02T06:10:48;10.00;99.90
17370;DHT22;8802;52.402;4.920;2024-03-02T06:13:15;10.00;99.90
17370;DHT22;8802;52.402;4.920;2024-03-02T06:15:42;10.00;99.90
17370;DHT22;8802;52.402;4.920;2024-03-02T06:18:09;10.00;99.90
17370;DHT22;8802;52.402;4.920;2024-03-02T06:20:35;10.00;99.90
17370;DHT22;8802;52.402;4.920;2024-03-02T06:23:04;10.00;99.90
17370;DHT22;8802;52.402;4.920;2024-03-02T06:25:31;9.90;99.90
17370;DHT22;8802;52.402;4.920;2024-03-02T06:27:57;9.90;99.90
17370;DHT22;8802;52.402;4.920;2024-03-02T06:30:24;10.00;99.90
17370;DHT22;8802;52.402;4.920;2024-03-02T06:32:51;9.90;99.90
17370;DHT22;8802;52.402;4.920;2024-03-02T06:35:18;9.90;99.90
17370;DHT22;8802;52.402;4.920;2024-03-02T06:37:45;9.90;99.90
17370;DHT22;8802;52.402;4.920;2024-03-02T06:40:13;9.90;99.90
17370;DHT22;8802;52.402;4.920;2024-03-02T06:42:40;9.90;99.90
17370;DHT22;8802;52.402;4.920;2024-03-02T06:45:07;9.90;99.90
17370;DHT22;8802;52.402;4.920;2024-03-02T06:47:33;9.90;99.90
17370;DHT22;8802;52.402;4.920;2024-03-02T06:50:00;9.90;99.90
17370;DHT22;8802;52.402;4.920;2024-03-02T06:52:27;9.90;99.90
17370;DHT22;8802;52.402;4.920;2024-03-02T06:54:54;9.90;99.90
17370;DHT22;8802;52.402;4.920;2024-03-02T06:57:22;10.00;99.90
17370;DHT22;8802;52.402;4.920;2024-03-02T06:59:50;10.00;99.90
17370;DHT22;8802;52.402;4.920;2024-03-02T07:02:19;10.00;99.90
17370;DHT22;8802;52.402;4.920;2024-03-02T07:04:46;10.00;99.90
17370;DHT22;8802;52.402;4.920;2024-03-02T07:07:13;10.00;99.90
17370;DHT22;8802;52.402;4.920;2024-03-02T07:09:40;10.00;99.90
17370;DHT22;8802;52.402;4.920;2024-03-02T07:12:07;10.00;99.90
17370;DHT22;8802;52.402;4.920;2024-03-02T07:14:35;10.00;99.90
17370;DHT22;8802;52.402;4.920;2024-03-02T07:17:33;10.00;99.90
17370;DHT22;8802;52.402;4.920;2024-03-02T07:20:01;10.10;99.90
17370;DHT22;8802;52.402;4.920;2024-03-02T07:22:29;10.10;99.90
17370;DHT22;8802;52.402;4.920;2024-03-02T07:24:56;10.10;99.90
17370;DHT22;8802;52.402;4.920;2024-03-02T07:27:23;10.10;99.90
17370;DHT22;8802;52.402;4.920;2024-03-02T07:29:51;10.10;99.90
17370;DHT22;8802;52.402;4.920;2024-03-02T07:32:17;10.20;99.90
17370;DHT22;8802;52.402;4.920;2024-03-02T07:34:44;10.20;99.90
17370;DHT22;8802;52.402;4.920;2024-03-02T07:37:11;10.20;99.90
17370;DHT22;8802;52.402;4.920;2024-03-02T07:39:38;10.20;99.90
17370;DHT22;8802;52.402;4.920;2024-03-02T07:42:05;10.20;99.90
17370;DHT22;8802;52.402;4.920;2024-03-02T07:44:32;10.20;99.90
17370;DHT22;8802;52.402;4.920;2024-03-02T07:47:00;10.30;99.90
17370;DHT22;8802;52.402;4.920;2024-03-02T07:49:27;10.30;99.90
17370;DHT22;8802;52.402;4.920;2024-03-02T07:51:54;10.30;99.90
17370;DHT22;8802;52.402;4.920;2024-03-02T07:54:21;10.30;99.90
17370;DHT22;8802;52.402;4.920;2024-03-02T07:56:48;10.30;99.90
17370;DHT22;8802;52.402;4.920;2024-03-02T07:59:14;10.40;99.90
17370;DHT22;8802;52.402;4.920;2024-03-02T08:01:42;10.40;99.90
17370;DHT22;8802;52.402;4.920;2024-03-02T08:04:10;10.40;99.90
17370;DHT22;8802;52.402;4.920;2024-03-02T08:06:37;10.40;99.90
17370;DHT22;8802;52.402;4.920;2024-03-02T08:09:04;10.40;99.90
17370;DHT22;8802;52.402;4.920;2024-03-02T08:11:35;10.40;99.90
17370;DHT22;8802;52.402;4.920;2024-03-02T08:14:02;10.50;99.90
17370;DHT22;8802;52.402;4.920;2024-03-02T08:16:29;10.50;99.90
17370;DHT22;8802;52.402;4.920;2024-03-02T08:18:56;10.50;99.90
17370;DHT22;8802;52.402;4.920;2024-03-02T08:21:25;10.50;99.90
17370;DHT22;8802;52.402;4.920;2024-03-02T08:23:52;10.60;99.90
17370;DHT22;8802;52.402;4.920;2024-03-02T08:26:19;10.60;99.90
17370;DHT22;8802;52.402;4.920;2024-03-02T08:28:46;10.70;99.90
17370;DHT22;8802;52.402;4.920;2024-03-02T08:31:12;10.80;99.90
17370;DHT22;8802;52.402;4.920;2024-03-02T08:33:39;10.80;99.90
17370;DHT22;8802;52.402;4.920;2024-03-02T08:36:08;10.90;99.90
17370;DHT22;8802;52.402;4.920;2024-03-02T08:38:37;11.00;99.90
17370;DHT22;8802;52.402;4.920;2024-03-02T08:41:04;11.10;99.90
17370;DHT22;8802;52.402;4.920;2024-03-02T08:43:31;11.30;99.90
17370;DHT22;8802;52.402;4.920;2024-03-02T08:45:58;11.40;99.90
17370;DHT22;8802;52.402;4.920;2024-03-02T08:48:25;11.40;99.90
17370;DHT22;8802;52.402;4.920;2024-03-02T08:50:52;11.60;99.90
17370;DHT22;8802;52.402;4.920;2024-03-02T08:53:19;11.70;99.90
17370;DHT22;8802;52.402;4.920;2024-03-02T08:55:47;11.80;99.90
17370;DHT22;8802;52.402;4.920;2024-03-02T08:58:14;11.90;99.90
17370;DHT22;8802;52.402;4.920;2024-03-02T09:00:41;12.10;99.90
17370;DHT22;8802;52.402;4.920;2024-03-02T09:03:08;12.20;99.90
17370;DHT22;8802;52.402;4.920;2024-03-02T09:05:35;12.30;99.90
17370;DHT22;8802;52.402;4.920;2024-03-02T09:08:01;12.40;99.90
17370;DHT22;8802;52.402;4.920;2024-03-02T09:10:29;12.50;99.90
17370;DHT22;8802;52.402;4.920;2024-03-02T09:12:58;12.70;99.90
17370;DHT22;8802;52.402;4.920;2024-03-02T09:15:25;12.80;99.90
17370;DHT22;8802;52.402;4.920;2024-03-02T09:17:52;13.00;99.90
17370;DHT22;8802;52.402;4.920;2024-03-02T09:20:18;13.00;99.90
17370;DHT22;8802;52.402;4.920;2024-03-02T09:22:45;13.10;99.90
17370;DHT22;8802;52.402;4.920;2024-03-02T09:25:14;13.20;99.90
17370;DHT22;8802;52.402;4.920;2024-03-02T09:27:41;13.30;99.90
17370;DHT22;8802;52.402;4.920;2024-03-02T09:30:10;13.40;99.90
17370;DHT22;8802;52.402;4.920;2024-03-02T09:32:39;13.50;99.90
17370;DHT22;8802;52.402;4.920;2024-03-02T09:35:06;13.60;99.90
17370;DHT22;8802;52.402;4.920;2024-03-02T09:37:34;13.60;99.90
17370;DHT22;8802;52.402;4.920;2024-03-02T09:40:01;13.70;99.90
17370;DHT22;8802;52.402;4.920;2024-03-02T09:42:28;13.80;99.90
17370;DHT22;8802;52.402;4.920;2024-03-02T09:44:56;13.90;99.90
17370;DHT22;8802;52.402;4.920;2024-03-02T09:47:25;14.00;99.90
17370;DHT22;8802;52.402;4.920;2024-03-02T09:49:51;14.00;99.90
17370;DHT22;8802;52.402;4.920;2024-03-02T09:52:19;14.10;99.90
17370;DHT22;8802;52.402;4.920;2024-03-02T09:54:47;14.20;99.90
17370;DHT22;8802;52.402;4.920;2024-03-02T09:57:15;14.20;99.90
17370;DHT22;8802;52.402;4.920;2024-03-02T09:59:42;14.30;99.90
17370;DHT22;8802;52.402;4.920;2024-03-02T10:02:11;14.40;99.90
17370;DHT22;8802;52.402;4.920;2024-03-02T10:04:39;14.50;99.90
17370;DHT22;8802;52.402;4.920;2024-03-02T10:07:10;14.60;99.90
17370;DHT22;8802;52.402;4.920;2024-03-02T10:09:38;14.70;99.90
17370;DHT22;8802;52.402;4.920;2024-03-02T10:12:06;14.70;99.90
17370;DHT22;8802;52.402;4.920;2024-03-02T10:14:33;14.80;99.90
17370;DHT22;8802;52.402;4.920;2024-03-02T10:17:04;14.90;99.90
17370;DHT22;8802;52.402;4.920;2024-03-02T10:19:32;15.00;99.90
17370;DHT22;8802;52.402;4.920;2024-03-02T10:22:02;15.10;99.90
17370;DHT22;8802;52.402;4.920;2024-03-02T10:24:35;15.10;99.90
17370;DHT22;8802;52.402;4.920;2024-03-02T10:27:07;15.20;99.90
17370;DHT22;8802;52.402;4.920;2024-03-02T10:29:36;15.30;99.90
17370;DHT22;8802;52.402;4.920;2024-03-02T10:32:04;15.30;99.90
17370;DHT22;8802;52.402;4.920;2024-03-02T10:34:32;15.40;99.90
17370;DHT22;8802;52.402;4.920;2024-03-02T10:36:59;15.50;99.90
17370;DHT22;8802;52.402;4.920;2024-03-02T10:39:28;15.50;99.90
17370;DHT22;8802;52.402;4.920;2024-03-02T10:41:56;15.60;99.90
17370;DHT22;8802;52.402;4.920;2024-03-02T10:44:23;15.60;99.90
17370;DHT22;8802;52.402;4.920;2024-03-02T10:46:50;15.70;99.90
17370;DHT22;8802;52.402;4.920;2024-03-02T10:49:19;15.70;99.90
17370;DHT22;8802;52.402;4.920;2024-03-02T10:51:47;15.70;99.90
17370;DHT22;8802;52.402;4.920;2024-03-02T10:54:15;15.80;99.90
17370;DHT22;8802;52.402;4.920;2024-03-02T10:56:44;15.80;99.90
17370;DHT22;8802;52.402;4.920;2024-03-02T10:59:17;15.80;99.90
17370;DHT22;8802;52.402;4.920;2024-03-02T11:01:48;15.90;99.90
17370;DHT22;8802;52.402;4.920;2024-03-02T11:04:18;15.90;99.90
17370;DHT22;8802;52.402;4.920;2024-03-02T11:06:48;16.00;99.90
17370;DHT22;8802;52.402;4.920;2024-03-02T11:09:18;16.10;99.90
17370;DHT22;8802;52.402;4.920;2024-03-02T11:11:52;16.10;99.90
17370;DHT22;8802;52.402;4.920;2024-03-02T11:14:24;16.20;99.90
17370;DHT22;8802;52.402;4.920;2024-03-02T11:16:52;16.30;99.90
17370;DHT22;8802;52.402;4.920;2024-03-02T11:19:18;16.30;99.90
17370;DHT22;8802;52.402;4.920;2024-03-02T11:21:45;16.40;99.90
17370;DHT22;8802;52.402;4.920;2024-03-02T11:24:29;16.40;99.90
17370;DHT22;8802;52.402;4.920;2024-03-02T11:27:00;16.50;99.90
17370;DHT22;8802;52.402;4.920;2024-03-02T11:29:43;16.60;99.90
17370;DHT22;8802;52.402;4.920;2024-03-02T11:32:14;16.60;99.90
17370;DHT22;8802;52.402;4.920;2024-03-02T11:34:42;16.70;99.90
17370;DHT22;8802;52.402;4.920;2024-03-02T11:37:12;16.80;99.90
17370;DHT22;8802;52.402;4.920;2024-03-02T11:39:39;16.90;99.90
17370;DHT22;8802;52.402;4.920;2024-03-02T11:42:08;16.90;99.90
17370;DHT22;8802;52.402;4.920;2024-03-02T11:44:35;17.00;99.90
17370;DHT22;8802;52.402;4.920;2024-03-02T11:47:05;17.00;99.90
17370;DHT22;8802;52.402;4.920;2024-03-02T11:49:39;17.10;99.90
17370;DHT22;8802;52.402;4.920;2024-03-02T11:52:08;17.20;99.90
17370;DHT22;8802;52.402;4.920;2024-03-02T11:54:37;17.30;99.90
17370;DHT22;8802;52.402;4.920;2024-03-02T11:57:05;17.40;99.90
17370;DHT22;8802;52.402;4.920;2024-03-02T11:59:33;17.50;99.90
17370;DHT22;8802;52.402;4.920;2024-03-02T12:02:01;17.50;99.90
17370;DHT22;8802;52.402;4.920;2024-03-02T12:04:29;17.70;99.80
17370;DHT22;8802;52.402;4.920;2024-03-02T12:06:57;17.60;99.60
17370;DHT22;8802;52.402;4.920;2024-03-02T12:09:26;17.70;99.90
17370;DHT22;8802;52.402;4.920;2024-03-02T12:12:04;17.70;99.90
17370;DHT22;8802;52.402;4.920;2024-03-02T12:14:33;17.70;99.90
17370;DHT22;8802;52.402;4.920;2024-03-02T12:17:00;17.80;99.90
17370;DHT22;8802;52.402;4.920;2024-03-02T12:19:28;17.80;99.90
17370;DHT22;8802;52.402;4.920;2024-03-02T12:21:56;17.90;99.90
17370;DHT22;8802;52.402;4.920;2024-03-02T12:24:23;18.00;99.60
17370;DHT22;8802;52.402;4.920;2024-03-02T12:26:51;18.00;99.00
17370;DHT22;8802;52.402;4.920;2024-03-02T12:29:19;18.10;98.50
17370;DHT22;8802;52.402;4.920;2024-03-02T12:31:48;18.10;98.80
17370;DHT22;8802;52.402;4.920;2024-03-02T12:34:16;18.10;98.00
17370;DHT22;8802;52.402;4.920;2024-03-02T12:36:44;18.10;98.70
17370;DHT22;8802;52.402;4.920;2024-03-02T12:39:13;18.10;99.00
17370;DHT22;8802;52.402;4.920;2024-03-02T12:41:41;18.10;99.20
17370;DHT22;8802;52.402;4.920;2024-03-02T12:44:08;18.10;98.90
17370;DHT22;8802;52.402;4.920;2024-03-02T12:46:35;18.10;98.80
17370;DHT22;8802;52.402;4.920;2024-03-02T12:49:08;18.10;98.20
17370;DHT22;8802;52.402;4.920;2024-03-02T12:51:37;18.10;97.40
17370;DHT22;8802;52.402;4.920;2024-03-02T12:54:06;18.00;97.90
17370;DHT22;8802;52.402;4.920;2024-03-02T12:56:33;18.00;97.90
17370;DHT22;8802;52.402;4.920;2024-03-02T12:59:00;18.00;98.10
17370;DHT22;8802;52.402;4.920;2024-03-02T13:01:27;17.90;98.30
17370;DHT22;8802;52.402;4.920;2024-03-02T13:03:54;17.90;97.50
17370;DHT22;8802;52.402;4.920;2024-03-02T13:06:23;17.90;98.10
17370;DHT22;8802;52.402;4.920;2024-03-02T13:08:53;17.90;97.50
17370;DHT22;8802;52.402;4.920;2024-03-02T13:11:21;17.80;97.60
17370;DHT22;8802;52.402;4.920;2024-03-02T13:13:48;17.80;97.20
17370;DHT22;8802;52.402;4.920;2024-03-02T13:16:16;17.70;97.80
17370;DHT22;8802;52.402;4.920;2024-03-02T13:18:45;17.70;97.60
17370;DHT22;8802;52.402;4.920;2024-03-02T13:21:11;17.70;98.30
17370;DHT22;8802;52.402;4.920;2024-03-02T13:23:40;17.70;97.10
17370;DHT22;8802;52.402;4.920;2024-03-02T13:26:07;17.60;96.90
17370;DHT22;8802;52.402;4.920;2024-03-02T13:28:36;17.60;97.30
17370;DHT22;8802;52.402;4.920;2024-03-02T13:31:03;17.60;96.70
17370;DHT22;8802;52.402;4.920;2024-03-02T13:33:30;17.50;97.00
17370;DHT22;8802;52.402;4.920;2024-03-02T13:35:58;17.50;97.60
17370;DHT22;8802;52.402;4.920;2024-03-02T13:38:25;17.40;97.20
17370;DHT22;8802;52.402;4.920;2024-03-02T13:40:53;17.40;97.30
17370;DHT22;8802;52.402;4.920;2024-03-02T13:43:20;17.40;96.80
17370;DHT22;8802;52.402;4.920;2024-03-02T13:45:49;17.30;97.10
17370;DHT22;8802;52.402;4.920;2024-03-02T13:48:17;17.20;97.40
17370;DHT22;8802;52.402;4.920;2024-03-02T13:50:44;17.20;97.00
17370;DHT22;8802;52.402;4.920;2024-03-02T13:53:12;17.20;97.00
17370;DHT22;8802;52.402;4.920;2024-03-02T13:55:38;17.10;97.10
17370;DHT22;8802;52.402;4.920;2024-03-02T13:58:08;17.10;96.70
17370;DHT22;8802;52.402;4.920;2024-03-02T14:00:36;17.10;97.10
17370;DHT22;8802;52.402;4.920;2024-03-02T14:03:04;17.00;97.20
17370;DHT22;8802;52.402;4.920;2024-03-02T14:05:31;17.00;97.10
17370;DHT22;8802;52.402;4.920;2024-03-02T14:07:58;17.00;96.90
17370;DHT22;8802;52.402;4.920;2024-03-02T14:10:26;16.90;96.60
17370;DHT22;8802;52.402;4.920;2024-03-02T14:12:53;16.90;97.00
17370;DHT22;8802;52.402;4.920;2024-03-02T14:15:22;16.90;97.00
17370;DHT22;8802;52.402;4.920;2024-03-02T14:17:49;16.80;97.30
17370;DHT22;8802;52.402;4.920;2024-03-02T14:20:16;16.80;97.00
17370;DHT22;8802;52.402;4.920;2024-03-02T14:22:47;16.80;96.90
17370;DHT22;8802;52.402;4.920;2024-03-02T14:25:14;16.70;97.90
17370;DHT22;8802;52.402;4.920;2024-03-02T14:27:41;16.70;97.40
17370;DHT22;8802;52.402;4.920;2024-03-02T14:30:09;16.70;97.20
17370;DHT22;8802;52.402;4.920;2024-03-02T14:32:38;16.60;97.30
17370;DHT22;8802;52.402;4.920;2024-03-02T14:35:05;16.60;97.80
17370;DHT22;8802;52.402;4.920;2024-03-02T14:37:35;16.60;97.30
17370;DHT22;8802;52.402;4.920;2024-03-02T14:40:03;16.60;98.10
17370;DHT22;8802;52.402;4.920;2024-03-02T14:42:32;16.60;98.00
17370;DHT22;8802;52.402;4.920;2024-03-02T14:44:59;16.60;97.80
17370;DHT22;8802;52.402;4.920;2024-03-02T14:47:27;16.60;97.30
17370;DHT22;8802;52.402;4.920;2024-03-02T14:49:55;16.60;97.40
17370;DHT22;8802;52.402;4.920;2024-03-02T14:52:22;16.50;97.70
17370;DHT22;8802;52.402;4.920;2024-03-02T14:54:48;16.50;98.00
17370;DHT22;8802;52.402;4.920;2024-03-02T14:57:15;16.40;97.90
17370;DHT22;8802;52.402;4.920;2024-03-02T14:59:42;16.40;98.30
17370;DHT22;8802;52.402;4.920;2024-03-02T15:02:09;16.30;98.60
17370;DHT22;8802;52.402;4.920;2024-03-02T15:04:36;16.30;98.50
17370;DHT22;8802;52.402;4.920;2024-03-02T15:07:04;16.20;98.00
17370;DHT22;8802;52.402;4.920;2024-03-02T15:09:31;16.20;98.40
17370;DHT22;8802;52.402;4.920;2024-03-02T15:12:00;16.20;98.30
17370;DHT22;8802;52.402;4.920;2024-03-02T15:14:27;16.10;98.00
17370;DHT22;8802;52.402;4.920;2024-03-02T15:16:54;16.00;98.50
17370;DHT22;8802;52.402;4.920;2024-03-02T15:19:21;15.90;98.40
17370;DHT22;8802;52.402;4.920;2024-03-02T15:21:48;15.90;98.50
17370;DHT22;8802;52.402;4.920;2024-03-02T15:24:16;15.90;98.30
17370;DHT22;8802;52.402;4.920;2024-03-02T15:26:43;15.80;98.80
17370;DHT22;8802;52.402;4.920;2024-03-02T15:29:10;15.80;99.20
17370;DHT22;8802;52.402;4.920;2024-03-02T15:31:37;15.80;99.20
17370;DHT22;8802;52.402;4.920;2024-03-02T15:34:04;15.70;99.50
17370;DHT22;8802;52.402;4.920;2024-03-02T15:36:33;15.70;99.30
17370;DHT22;8802;52.402;4.920;2024-03-02T15:39:00;15.70;99.30
17370;DHT22;8802;52.402;4.920;2024-03-02T15:41:29;15.70;99.00
17370;DHT22;8802;52.402;4.920;2024-03-02T15:43:56;15.70;99.20
17370;DHT22;8802;52.402;4.920;2024-03-02T15:46:23;15.70;99.50
17370;DHT22;8802;52.402;4.920;2024-03-02T15:48:50;15.70;99.10
17370;DHT22;8802;52.402;4.920;2024-03-02T15:51:17;15.70;98.90